• Join FlightAware (Why Join?)
  • Login
  • US Flag 
10:08PM EDT


 

Airport Tracker/Info


-or-


 

Live Flight TrackerFlight Track Log ✈ FFT918 ✈ 27-Feb-2014 ✈ KMCO - KTTN

Flight Track Log - Related Links

Times and Time Zones

All times are in EST time to prevent confusion due to time zone crossing. See the FFT918 flight status page for this flight to view local times or setup timezone preferences in your user account.

Time Position Orientation Groundspeed Altitude Reporting Facility
EST Latitude Longitude Course Direction KTS MPH feet Rate Location/Type
06:33PM 28.4333 -81.3000 41° Northeast 151 174 600  Level Orlando TRACON
06:33PM 28.4500 -81.2833 41° Northeast 159 183 1,700 1,620 Climbing Orlando TRACON
06:34PM 28.5000 -81.2667 16° North 219 252 3,100 1,920 Climbing Orlando TRACON
06:35PM 28.5667 -81.2333 24° Northeast 276 318 5,600 2,460 Climbing Orlando TRACON
06:38PM 28.7428 -81.2778 348° North 296 341 11,400 2,460 Climbing Jacksonville Center
06:39PM 28.8331 -81.3094 343° North 311 358 13,900 2,640 Climbing Jacksonville Center
06:40PM 28.9294 -81.3339 347° North 339 390 16,700 2,400 Climbing Jacksonville Center
06:41PM 29.0258 -81.3658 344° North 350 403 18,800 1,860 Climbing Jacksonville Center
06:42PM 29.1283 -81.3950 346° North 361 415 20,500 1,500 Climbing Jacksonville Center
06:43PM 29.2433 -81.4028 357° North 385 443 21,900 1,380 Climbing Jacksonville Center
06:44PM 29.3625 -81.4153 355° North 409 471 23,300 1,500 Climbing Jacksonville Center
06:45PM 29.4961 -81.4300 355° North 432 497 24,900 1,500 Climbing Jacksonville Center
06:46PM 29.6256 -81.4422 355° North 451 519 26,300 1,200 Climbing Jacksonville Center
06:47PM 29.7572 -81.4547 355° North 462 532 27,400 1,200 Climbing Jacksonville Center
06:48PM 29.8911 -81.4672 355° North 472 543 28,800 1,440 Climbing Jacksonville Center
06:49PM 30.0250 -81.4819 355° North 478 550 30,300 1,500 Climbing Jacksonville Center
06:50PM 30.1608 -81.4944 355° North 484 557 31,800 1,620 Climbing Jacksonville Center
06:51PM 30.2842 -81.5069 355° North 477 549 33,600 1,200 Climbing Jacksonville Center
06:52PM 30.3967 -81.5031 North 450 518 34,300 780 Climbing Jacksonville Center
06:53PM 30.5261 -81.4964 North 450 518 35,200 1,200 Climbing Jacksonville Center
06:54PM 30.6533 -81.4847 North 457 526 36,800 900 Climbing Jacksonville Center
06:55PM 30.7764 -81.4756 North 457 526 37,000 60 Climbing Jacksonville Center
06:56PM 30.9036 -81.4664 North 452 520 37,000  Level Jacksonville Center
06:57PM 31.0289 -81.4572 North 452 520 37,000  Level Jacksonville Center
06:58PM 31.1519 -81.4481 North 447 514 37,000  Level Jacksonville Center
06:59PM 31.2792 -81.4317 North 447 514 37,000  Level Jacksonville Center
07:00PM 31.4142 -81.3736 20° North 454 522 37,000  Level Jacksonville Center
07:01PM 31.5344 -81.3033 26° Northeast 480 552 37,000  Level Jacksonville Center
07:02PM 31.6464 -81.2381 26° Northeast 485 558 37,000  Level Jacksonville Center
07:03PM 31.7789 -81.1600 27° Northeast 485 558 37,000  Level Jacksonville Center
07:04PM 31.8928 -81.0917 27° Northeast 485 558 37,000  Level Jacksonville Center
07:05PM 32.0128 -81.0206 27° Northeast 485 558 37,000  Level Jacksonville Center
07:06PM 32.1494 -80.9419 26° Northeast 485 558 37,000  Level Jacksonville Center
07:07PM 32.2592 -80.8756 27° Northeast 485 558 37,000  Level Jacksonville Center
07:08PM 32.3892 -80.7964 27° Northeast 484 557 37,000 -60 Level Jacksonville Center
07:09PM 32.4967 -80.7275 28° Northeast 484 557 36,900  Descending Jacksonville Center
07:10PM 32.6186 -80.6556 26° Northeast 479 551 37,000  Climbing Jacksonville Center
07:11PM 32.7364 -80.5836 27° Northeast 479 551 37,000 -60 Level Jacksonville Center
07:12PM 32.8581 -80.5111 27° Northeast 479 551 36,900  Descending Jacksonville Center
07:13PM 32.9881 -80.4333 27° Northeast 484 557 37,000  Climbing Jacksonville Center
07:14PM 33.1056 -80.3608 27° Northeast 500 575 37,000  Level Jacksonville Center
07:15PM 33.2375 -80.2825 26° Northeast 494 568 37,000  Level Jacksonville Center
07:16PM 33.3550 -80.2069 28° Northeast 484 557 37,000  Level Jacksonville Center
07:17PM 33.4767 -80.1336 27° Northeast 484 557 37,000  Level Jacksonville Center
07:18PM 33.5958 -80.0575 28° Northeast 484 557 37,000 -60 Level Jacksonville Center
07:19PM 33.7172 -79.9836 27° Northeast 484 557 36,900  Descending Jacksonville Center
07:20PM 33.8325 -79.9100 28° Northeast 484 557 37,000  Climbing Jacksonville Center
07:21PM 33.9539 -79.8356 27° Northeast 484 557 37,000  Level Jacksonville Center
07:22PM 34.0708 -79.7614 28° Northeast 484 557 37,000  Level Jacksonville Center
07:23PM 34.1900 -79.6844 28° Northeast 484 557 37,000  Level Jacksonville Center
07:25PM 34.4189 -79.5594 24° Northeast 476 548 37,000  Level Washington Center
07:26PM 34.5400 -79.4947 24° Northeast 470 541 37,000  Level Washington Center
07:27PM 34.6611 -79.4300 24° Northeast 470 541 37,000  Level Washington Center
07:28PM 34.7800 -79.3647 24° Northeast 465 535 37,000  Level Washington Center
07:29PM 34.9031 -79.2994 24° Northeast 465 535 37,000  Level Washington Center
07:30PM 35.0261 -79.2317 24° Northeast 465 535 37,000  Level Washington Center
07:31PM 35.1511 -79.1661 23° Northeast 470 541 37,000  Level Washington Center
07:32PM 35.2742 -79.1003 24° Northeast 470 541 37,100  Climbing Washington Center
07:33PM 35.3972 -79.0344 24° Northeast 470 541 37,000 -60 Descending Washington Center
07:34PM 35.5200 -78.9658 24° Northeast 470 541 37,000  Level Washington Center
07:35PM 35.6431 -78.9019 23° Northeast 470 541 37,000  Level Washington Center
07:36PM 35.7639 -78.8328 25° Northeast 470 541 37,000  Level Washington Center
07:37PM 35.8844 -78.7633 25° Northeast 470 541 37,000  Level Washington Center
07:38PM 36.0053 -78.6989 23° Northeast 470 541 37,000  Level Washington Center
07:39PM 36.1258 -78.6317 24° Northeast 470 541 37,000  Level Washington Center
07:40PM 36.2467 -78.5617 25° Northeast 470 541 37,000  Level Washington Center
07:41PM 36.3714 -78.4939 24° Northeast 470 541 37,100  Climbing Washington Center
07:42PM 36.4897 -78.4261 25° Northeast 470 541 37,000 -60 Descending Washington Center
07:43PM 36.6103 -78.3528 26° Northeast 470 541 37,000  Level Washington Center
07:44PM 36.7208 -78.2636 33° Northeast 475 547 37,000  Level Washington Center
07:45PM 36.8356 -78.1792 30° Northeast 475 547 37,000 -300 Level Washington Center
07:47PM 37.0664 -78.0047 31° Northeast 481 554 36,200 -660 Descending Washington Center
07:48PM 37.1808 -77.9172 31° Northeast 476 548 35,200 -1,020 Descending Washington Center
07:49PM 37.2950 -77.8319 31° Northeast 476 548 34,200 -960 Descending Washington Center
07:50PM 37.4072 -77.7461 31° Northeast 476 548 33,300 -960 Descending Washington Center
07:51PM 37.5192 -77.6631 30° Northeast 476 548 32,300 -1,020 Descending Washington Center
07:52PM 37.6333 -77.5769 31° Northeast 476 548 31,300 -840 Descending Washington Center
07:53PM 37.7453 -77.4906 31° Northeast 476 548 30,600 -960 Descending Washington Center
07:54PM 37.8678 -77.3964 31° Northeast 476 548 29,400 -840 Descending Washington Center
07:55PM 37.9753 -77.3119 32° Northeast 469 540 29,000 -540 Descending Washington Center
07:56PM 38.0744 -77.2378 30° Northeast 462 532 28,400 -840 Descending Washington Center
07:57PM 38.1903 -77.1478 31° Northeast 457 526 27,400 -1,020 Descending Washington Center
07:58PM 38.2933 -77.0681 31° Northeast 445 512 26,400 -1,020 Descending Washington Center
07:59PM 38.3839 -76.9983 31° Northeast 430 495 25,400 -1,020 Descending Washington Center
08:00PM 38.4828 -76.9231 31° Northeast 424 488 24,400 -720 Descending Washington Center
08:01PM 38.5794 -76.8478 31° Northeast 419 482 24,000 -240 Descending Washington Center
08:02PM 38.6761 -76.7669 33° Northeast 408 470 24,000 -180 Level Washington Center
08:03PM 38.7297 -76.6242 64° Northeast 403 464 23,700 -1,260 Descending Washington Center
08:04PM 38.7622 -76.4675 75° East 420 483 21,500 -2,280 Descending Washington Center
08:05PM 38.7944 -76.3081 75° East 439 505 19,200 -2,400 Descending Washington Center
08:06PM 38.8286 -76.1567 74° East 444 511 16,800 -2,100 Descending Washington Center
08:07PM 38.8606 -76.0075 75° East 438 504 15,000 -960 Descending Washington Center
08:08PM 38.8900 -75.8636 75° East 425 489 14,900 -600 Descending Washington Center
08:09PM 39.0333 -75.7000 42° Northeast 357 411 13,300 -780 Descending Philadelphia TRACON
08:10PM 39.1333 -75.6667 14° North 299 344 12,800 -540 Descending Philadelphia TRACON
08:11PM 39.2167 -75.6667 360° North 311 358 12,300 -420 Descending Philadelphia TRACON
08:12PM 39.3000 -75.6500 North 320 368 12,000 -180 Descending Philadelphia TRACON
08:13PM 39.3667 -75.5833 38° Northeast 314 361 12,000  Level Philadelphia TRACON
08:14PM 39.4333 -75.5167 38° Northeast 321 369 12,000  Level Philadelphia TRACON
08:15PM 39.5167 -75.4500 32° Northeast 323 372 12,000  Level Philadelphia TRACON
08:16PM 39.5833 -75.3667 44° Northeast 323 372 12,000 -240 Level Philadelphia TRACON
08:17PM 39.6667 -75.3000 32° Northeast 318 366 11,500 -720 Descending Philadelphia TRACON
08:18PM 39.7333 -75.2333 38° Northeast 315 362 10,600 -840 Descending Philadelphia TRACON
08:19PM 39.8000 -75.1667 38° Northeast 302 348 10,000 -300 Descending Philadelphia TRACON
08:20PM 39.8500 -75.1000 46° Northeast 298 343 10,000 -480 Level Philadelphia TRACON
08:21PM 39.9167 -75.0500 30° Northeast 253 291 9,100 -1,140 Descending Philadelphia TRACON
08:23PM 39.9833 -74.9667 44° Northeast 248 285 7,600 -1,320 Descending Philadelphia TRACON
08:24PM 40.0333 -74.9167 37° Northeast 239 275 6,300 -1,380 Descending Philadelphia TRACON
08:24PM 40.0833 -74.8833 27° Northeast 234 269 5,200 -1,200 Descending Philadelphia TRACON
08:26PM 40.1333 -74.8167 46° Northeast 220 253 4,000 -1,080 Descending Philadelphia TRACON
08:26PM 40.1667 -74.7833 37° Northeast 189 217 3,000 -840 Descending Philadelphia TRACON
08:27PM 40.2167 -74.7500 27° Northeast 174 200 2,500 -360 Descending Philadelphia TRACON
08:28PM 40.2333 -74.7000 66° East 155 178 2,300 -300 Descending Philadelphia TRACON
08:29PM 40.2833 -74.6667 27° Northeast 149 171 1,900 -300 Descending Philadelphia TRACON
08:30PM 40.3167 -74.6833 339° North 117 135 1,700 -60 Descending Philadelphia TRACON
08:31PM 40.3167 -74.7167 270° West 135 155 1,800 -300 Climbing Philadelphia TRACON
08:33PM 40.3167 -74.7667 270° West 118 136 1,100 -660 Descending Philadelphia TRACON
08:35PM 40.2767 -74.8135 222° Southwest  Level Estimated
08:42PM 40.2767 -74.8135 339° North  Level Estimated